• Join FlightAware (Why Join?)
  • Login
  • US Flag 
11:24PM EDT


 

Airport Tracker/Info


-or-


 

Live Flight TrackerFlight Track Log ✈ N40BZ ✈ 07-Nov-2013 ✈ KOSU - KBUF

Flight Track Log - Related Links

Times and Time Zones

All times are in EST time to prevent confusion due to time zone crossing. See the N40BZ flight status page for this flight to view local times or setup timezone preferences in your user account.

Time Position Orientation Groundspeed Altitude Reporting Facility
EST Latitude Longitude Course Direction KTS MPH feet Rate Location/Type
01:11PM 40.0864 -83.0847 259° West 101 116 1,200  Level Indianapolis Center
01:12PM 40.0806 -83.1222 259° West 123 142 2,200 960 Climbing Indianapolis Center
01:13PM 40.0736 -83.1525 253° West 110 127 3,000 1,080 Climbing Indianapolis Center
01:13PM 40.0725 -83.1619 261° West 109 125 3,300 960 Climbing Indianapolis Center
01:14PM 40.0750 -83.1875 277° West 108 124 4,000 780 Climbing Indianapolis Center
01:14PM 40.0828 -83.1856 11° North 113 130 4,100 840 Climbing Indianapolis Center
01:15PM 40.1008 -83.1589 48° Northeast 128 147 4,900 960 Climbing Indianapolis Center
01:15PM 40.1072 -83.1511 43° Northeast 126 145 5,100 960 Climbing Indianapolis Center
01:16PM 40.1242 -83.1244 50° Northeast 127 146 5,900 1,080 Climbing Indianapolis Center
01:16PM 40.1317 -83.1167 38° Northeast 129 148 6,200 960 Climbing Indianapolis Center
01:17PM 40.1472 -83.0903 52° Northeast 127 146 6,900 840 Climbing Indianapolis Center
01:17PM 40.1514 -83.0844 47° Northeast 125 144 7,000 60 Climbing Indianapolis Center
01:18PM 40.1808 -83.0400 49° Northeast 168 193 7,000 300 Level Indianapolis Center
01:19PM 40.2094 -82.9917 52° Northeast 165 190 7,700 720 Climbing Indianapolis Center
01:20PM 40.2375 -82.9531 46° Northeast 145 167 8,500 720 Climbing Indianapolis Center
01:20PM 40.2367 -82.9522 143° Southeast 150 173 8,500 420 Level Indianapolis Center
01:21PM 40.2661 -82.9069 50° Northeast 164 189 9,000 240 Climbing Indianapolis Center
01:22PM 40.3014 -82.8528 49° Northeast 192 221 9,000  Level Indianapolis Center
01:22PM 40.3086 -82.8439 43° Northeast 210 242 9,000  Level Indianapolis Center
01:23PM 40.3450 -82.7867 50° Northeast 207 238 9,000  Level Indianapolis Center
01:23PM 40.3456 -82.7867 360° North 210 242 9,000  Level Indianapolis Center
01:24PM 40.3822 -82.7294 50° Northeast 207 238 9,000  Level Indianapolis Center
01:25PM 40.4189 -82.6717 50° Northeast 204 235 9,000  Level Indianapolis Center
01:26PM 40.4511 -82.6219 50° Northeast 202 232 9,000  Level Indianapolis Center
01:26PM 40.4550 -82.6147 55° Northeast 202 232 9,000  Level Indianapolis Center
01:27PM 40.4878 -82.5644 49° Northeast 204 235 9,000  Level Indianapolis Center
01:27PM 40.4925 -82.5575 48° Northeast 203 234 9,000  Level Indianapolis Center
01:28PM 40.5292 -82.5022 49° Northeast 204 235 9,000  Level Indianapolis Center
01:28PM 40.5281 -82.4983 111° Southeast 205 236 9,000  Level Indianapolis Center
01:29PM 40.5656 -82.4422 49° Northeast 203 234 9,000  Level Indianapolis Center
01:30PM 40.6075 -82.3747 51° Northeast 203 234 9,000  Level Indianapolis Center
01:32PM 40.6803 -82.2625 49° Northeast 202 232 9,000  Level Cleveland Center
01:33PM 40.7019 -82.2303 48° Northeast 205 236 9,000  Level Cleveland Center
01:33PM 40.7169 -82.2050 52° Northeast 202 232 9,000  Level Cleveland Center
01:34PM 40.7342 -82.1778 50° Northeast 201 231 9,000  Level Cleveland Center
01:34PM 40.7592 -82.1375 51° Northeast 203 234 9,000  Level Cleveland Center
01:35PM 40.7961 -82.0797 50° Northeast 204 235 9,000  Level Cleveland Center
01:36PM 40.8133 -82.0553 47° Northeast 202 232 9,000  Level Cleveland Center
01:36PM 40.8319 -82.0228 53° Northeast 202 232 9,000  Level Cleveland Center
01:37PM 40.8531 -81.9900 50° Northeast 205 236 9,000  Level Cleveland Center
01:37PM 40.8692 -81.9642 50° Northeast 204 235 9,000  Level Cleveland Center
01:38PM 40.8878 -81.9347 50° Northeast 202 232 9,000  Level Cleveland Center
01:38PM 40.9050 -81.9061 51° Northeast 203 234 9,000  Level Cleveland Center
01:39PM 40.9294 -81.8697 48° Northeast 204 235 9,000  Level Cleveland Center
01:40PM 40.9411 -81.8481 55° Northeast 203 234 9,000  Level Cleveland Center
01:40PM 40.9614 -81.8194 47° Northeast 204 235 9,000  Level Cleveland Center
01:41PM 40.9961 -81.7614 52° Northeast 205 236 9,000  Level Cleveland Center
01:42PM 41.0206 -81.7217 51° Northeast 206 237 9,000  Level Cleveland Center
01:42PM 41.0356 -81.6983 50° Northeast 207 238 9,000  Level Cleveland Center
01:43PM 41.0583 -81.6628 50° Northeast 207 238 9,000  Level Cleveland Center
01:43PM 41.0725 -81.6403 50° Northeast 207 238 9,000  Level Cleveland Center
01:44PM 41.0939 -81.6047 51° Northeast 203 234 9,000  Level Cleveland Center
01:44PM 41.1092 -81.5822 48° Northeast 204 235 9,000  Level Cleveland Center
01:45PM 41.1306 -81.5469 51° Northeast 204 235 9,000  Level Cleveland Center
01:45PM 41.1364 -81.5367 53° Northeast 204 235 9,000  Level Cleveland Center
01:46PM 41.1667 -81.4886 50° Northeast 205 236 9,000  Level Cleveland Center
01:47PM 41.2092 -81.4203 50° Northeast 205 236 9,000  Level Cleveland Center
01:48PM 41.2453 -81.3606 51° Northeast 206 237 9,000  Level Cleveland Center
01:49PM 41.2817 -81.3011 51° Northeast 206 237 9,000  Level Cleveland Center
01:50PM 41.3186 -81.2425 50° Northeast 206 237 9,000  Level Cleveland Center
01:51PM 41.3553 -81.1831 51° Northeast 206 237 9,000  Level Cleveland Center
01:52PM 41.3911 -81.1233 51° Northeast 205 236 9,000  Level Cleveland Center
01:53PM 41.4269 -81.0661 50° Northeast 202 232 9,000  Level Cleveland Center
01:54PM 41.4694 -80.9950 51° Northeast 206 237 9,000  Level Cleveland Center
01:55PM 41.5069 -80.9350 50° Northeast 208 239 9,000  Level Cleveland Center
01:56PM 41.5428 -80.8742 52° Northeast 207 238 9,000  Level Cleveland Center
01:57PM 41.5797 -80.8144 50° Northeast 207 238 9,000  Level Cleveland Center
01:58PM 41.6167 -80.7531 51° Northeast 210 242 9,000  Level Cleveland Center
01:59PM 41.6528 -80.6933 51° Northeast 205 236 9,000  Level Cleveland Center
02:00PM 41.6964 -80.6236 50° Northeast 207 238 9,000  Level Cleveland Center
02:01PM 41.7322 -80.5617 52° Northeast 210 242 9,000  Level Cleveland Center
02:02PM 41.7694 -80.5000 51° Northeast 210 242 9,000  Level Cleveland Center
02:03PM 41.8058 -80.4381 52° Northeast 209 241 9,000  Level Cleveland Center
02:04PM 41.8439 -80.3769 50° Northeast 211 243 9,000  Level Cleveland Center
02:05PM 41.8833 -80.3094 52° Northeast 213 245 9,000  Level Cleveland Center
02:06PM 41.9217 -80.2458 51° Northeast 211 243 9,000  Level Cleveland Center
02:07PM 41.9608 -80.1811 51° Northeast 213 245 9,000  Level Cleveland Center
02:08PM 41.9983 -80.1156 52° Northeast 212 244 9,000 60 Level Cleveland Center
02:10PM 42.0350 -80.0542 51° Northeast 204 235 9,200 420 Climbing Cleveland Center
02:11PM 42.0703 -79.9967 50° Northeast 191 220 9,900 360 Climbing Cleveland Center
02:12PM 42.1039 -79.9392 52° Northeast 190 219 10,000  Climbing Cleveland Center
02:13PM 42.1386 -79.8775 53° Northeast 209 241 10,000 240 Level Cleveland Center
02:14PM 42.1742 -79.8158 52° Northeast 203 234 10,600 480 Climbing Cleveland Center
02:15PM 42.2081 -79.7636 49° Northeast 189 217 11,000 180 Climbing Cleveland Center
02:16PM 42.2431 -79.6992 54° Northeast 214 246 11,000  Level Cleveland Center
02:17PM 42.2817 -79.6356 51° Northeast 221 254 11,000  Level Cleveland Center
02:18PM 42.3261 -79.5581 52° Northeast 220 253 11,000  Level Cleveland Center
02:19PM 42.3639 -79.4917 52° Northeast 223 257 11,100  Climbing Cleveland Center
02:20PM 42.4011 -79.4283 51° Northeast 219 252 11,100  Level Cleveland Center
02:21PM 42.4394 -79.3636 51° Northeast 221 254 11,100 -600 Level Cleveland Center
02:22PM 42.4803 -79.2911 53° Northeast 221 254 9,900 -1,620 Descending Cleveland Center
02:23PM 42.5269 -79.2314 43° Northeast 220 253 7,800 -2,040 Descending Cleveland Center
02:24PM 42.5661 -79.1681 50° Northeast 211 243 5,700 -1,920 Descending Cleveland Center
02:25PM 42.5989 -79.1058 54° Northeast 197 227 3,900 -840 Descending Cleveland Center
02:26PM 42.6292 -79.0503 53° Northeast 179 206 4,000  Climbing Cleveland Center
02:27PM 42.6569 -78.9978 54° Northeast 167 192 4,000  Level Cleveland Center
02:28PM 42.6867 -78.9450 53° Northeast 168 193 4,000  Level Cleveland Center
02:29PM 42.7125 -78.8964 54° Northeast 166 191 4,000 -240 Level Cleveland Center
02:30PM 42.7417 -78.8433 53° Northeast 167 192 3,500 -720 Descending Cleveland Center
02:31PM 42.7656 -78.7850 61° Northeast 187 215 2,500 -480 Descending Cleveland Center
02:32PM 42.8022 -78.7361 44° Northeast 170 196 2,600  Climbing Cleveland Center
02:33PM 42.8375 -78.6881 45° Northeast 170 196 2,600 -120 Level Cleveland Center
02:34PM 42.8733 -78.6469 40° Northeast 169 194 2,400 -240 Descending Cleveland Center
02:35PM 42.9078 -78.6594 345° North 155 178 2,200 -600 Descending Cleveland Center
02:37PM 42.9167 -78.7000 287° West 76 87 1,100 -960 Descending Buffalo TRACON
02:39PM 42.9333 -78.7167 48° Northeast  Level FlightAware Approximate